Home > Products > Valid Products > TAF

000
FTUS43 KSGF 301100
TAFSGF
TAF
KSGF 301120Z 3012/0112 16007KT P6SM SCT250=



000
FTUS43 KSGF 301100
TAFJLN
TAF
KJLN 301120Z 3012/0112 16008KT P6SM SCT250=



000
FTUS43 KSGF 300500
TAFJLN
TAF
KJLN 300520Z 3006/0106 14003KT P6SM SKC
     FM301500 19011KT P6SM SCT050
     FM302300 17007KT P6SM SCT200=



000
FTUS43 KSGF 300500
TAFSGF
TAF
KSGF 300520Z 3006/0106 12003KT P6SM SKC
     FM301500 18009KT P6SM SCT040
     FM302300 15007KT P6SM SCT200=



000
FTUS43 KSGF 292300
TAFJLN
TAF
KJLN 292320Z 3000/3024 14004KT P6SM SKC
     FM301500 19011KT P6SM SCT050=



000
FTUS43 KSGF 292300
TAFSGF
TAF
KSGF 292320Z 3000/3024 12004KT P6SM SKC
     FM301500 18009KT P6SM SCT040=



000
FTUS43 KSGF 291700 CCA
TAFJLN
TAF COR
KJLN 291743Z 2918/3018 VRB05KT P6SM FEW050
     FM300000 VRB04KT P6SM SKC
     FM301500 15010KT P6SM SKC=



000
FTUS43 KSGF 291700 CCA
TAFSGF
TAF COR
KSGF 291743Z 2918/3018 VRB04KT P6SM FEW050
     FM300000 VRB04KT P6SM SKC
     FM301500 18008KT P6SM SKC=



000
FTUS43 KSGF 291700
TAFJLN
TAF
KJLN 291737Z 2918/3018 VRB04KT P6SM SKC
     FM301500 15010KT P6SM SKC=



000
FTUS43 KSGF 291700
TAFSGF
TAF
KSGF 291737Z 2918/3018 VRB04KT P6SM SKC
     FM301500 18008KT P6SM SKC=



000
FTUS43 KSGF 291100
TAFJLN
TAF
KJLN 291131Z 2912/3012 VRB03KT 6SM BR SKC
     FM291400 VRB05KT P6SM SKC
     FM300100 14005KT P6SM SKC=



000
FTUS43 KSGF 291100
TAFSGF
TAF
KSGF 291131Z 2912/3012 VRB03KT 6SM BR SKC
     FM291400 VRB05KT P6SM SKC
     FM300100 15006KT P6SM SKC=



000
FTUS43 KSGF 290800 AAA
TAFJLN
TAF AMD
KJLN 290855Z 2909/3006 VRB04KT 6SM BR SKC
     FM291100 VRB04KT 5SM BR SKC
     FM291400 12005KT P6SM SKC=



000
FTUS43 KSGF 290800 AAA
TAFSGF
TAF AMD
KSGF 290855Z 2909/3006 16003KT P6SM SKC
     FM291100 16003KT 5SM BR SKC
     FM291400 VRB05KT P6SM SKC=



000
FTUS43 KSGF 290500
TAFSGF
TAF
KSGF 290520Z 2906/3006 VRB03KT P6SM SKC
     FM290800 VRB04KT 5SM BR SKC
     FM291400 VRB05KT P6SM SKC=



000
FTUS43 KSGF 290500
TAFJLN
TAF
KJLN 290520Z 2906/3006 VRB04KT P6SM SKC
     FM290900 VRB04KT 5SM BR SKC
     FM291400 12005KT P6SM SKC=



000
FTUS43 KSGF 282300
TAFJLN
TAF
KJLN 282326Z 2900/2924 VRB05KT P6SM SKC
     FM290900 VRB04KT 5SM BR SKC
     FM291400 12005KT P6SM SKC=



000
FTUS43 KSGF 282300
TAFSGF
TAF
KSGF 282326Z 2900/2924 VRB05KT P6SM SKC
     FM290800 VRB04KT 5SM BR SKC
     FM291400 VRB05KT P6SM SKC=



000
FTUS43 KSGF 281700
TAFJLN
TAF
KJLN 281720Z 2818/2918 VRB05KT P6SM SCT050
     FM290000 VRB05KT P6SM SKC=



000
FTUS43 KSGF 281700
TAFSGF
TAF
KSGF 281720Z 2818/2918 10006KT P6SM SCT050
     FM290000 VRB05KT P6SM SKC=



000
FTUS43 KSGF 281100
TAFSGF
TAF
KSGF 281120Z 2812/2912 12006KT P6SM SCT080
     FM290100 14003KT P6SM SKC=



000
FTUS43 KSGF 281100
TAFJLN
TAF
KJLN 281120Z 2812/2912 12006KT P6SM SCT080
     FM290100 13003KT P6SM SKC=



000
FTUS43 KSGF 280500
TAFJLN
TAF
KJLN 280520Z 2806/2906 13003KT P6SM SCT060
     FM281500 14006KT P6SM SCT040
     FM282300 14003KT P6SM SKC=



000
FTUS43 KSGF 280500
TAFSGF
TAF
KSGF 280520Z 2806/2906 14003KT P6SM SCT060
     FM281500 14006KT P6SM SCT035
     FM282300 14003KT P6SM SKC=



000
FTUS43 KSGF 272300
TAFSGF
TAF
KSGF 272320Z 2800/2824 14005KT P6SM SKC
     FM281500 14006KT P6SM SCT035=



000
FTUS43 KSGF 272300
TAFJLN
TAF
KJLN 272320Z 2800/2824 13005KT P6SM SKC
     FM281500 14006KT P6SM SCT040=



000
FTUS43 KSGF 271700
TAFSGF
TAF
KSGF 271720Z 2718/2818 14008KT P6SM SCT250
     FM281500 14006KT P6SM SCT030=



000
FTUS43 KSGF 271700
TAFJLN
TAF
KJLN 271720Z 2718/2818 14006KT P6SM SKC
     FM281500 14006KT P6SM SCT030=



    US Dept of Commerce
    National Oceanic and Atmospheric Administration
    National Weather Service
    1325 East West Highway
    Silver Spring, MD 20910
    Page Author: NWS Internet Services Team
Disclaimer
Information Quality
Credits
Glossary
Privacy Policy
Freedom of Information Act (FOIA)
About Us
Career Opportunities